Hauptseite
METAR-TAF:

METAR-TAF

Flughäfen :

Jijel, Algerien

Breite: 36-53N, Länge: 005-49E, Höhe: 2 m

Beobachtung

Neuester Wetterbericht von vor 15 Minuten, um 07:00 UTC
Wind 2 kt aus Süd
Temperatur 5°C
Luftfeuchtigkeit 87%
Luftdruck 1021 hPa
Sichtweite 10 km oder mehr
keine Wolken unter 1500 m und keine Kumulonimbus oder Gewitterwolken

METAR: DAAV 240700Z 18002KT CAVOK 05/03 Q1021

Zeit: 08:15 (07:15 UTC)

Prognose

Neuester Wetterbericht von vor 2 Stunden und 15 Minuten, um 05:00 UTC
Gültige Prognose vom 24 um 06 UTC bis 25 um 06 UTC
Wind 8 kt aus West/Südwest
Sichtweite: 8000 m
Leicht bewölkt in der Höhe von 2000 ft
Wahrscheinlichkeit 30% :
Zeitweise
vom 24 um 06 UTC bis 24 um 09 UTC
Sichtweite: 2000 m
feuchter Dunst
Übergehend zu
vom 24 um 10 UTC bis 24 um 12 UTC
Wind 12 kt aus Nord/Nordwest

TAF: DAAV 240500Z 2406/2506 24008KT 8000 FEW020 PROB30 TEMPO 2406/2409 2000 BR BKN0010 BECMG 2410/2412 34012KT

Wetterbeobachtungen und Prognosen von mehr als 4000 Flughäfen (METAR und TAF Bericht).

Die verfügbaren Stationen werden durch gelbe und rote Markierungen auf der Karte dargestellt.

Führen Sie die Maus auf sie, um den Namen der Station zu sehen.

Darauf klicken, um die Beobachtung von Wetterbeobachtungen und Prognosen zu sehen.

Um die Karte zu ändern : klicken Sie auf den grünen Tasten mit einem schwarzen Kreuz Zum Vergrößern, auf den grünen Button mit einem Gedankenstrich zu verkleinern, oder auf die grünen Pfeile für benachbarte Karten.


METAR-TAF: